Airfield :
LOGIN :

Register | Disclaimer

   EN    FR    IT 

 










Legend :    VFR   Marginal VFR   IFR   Intensive IFR   Very Intensive IFR
Visi :
Ceiling :
>= 8 km
>= 3000ft
5 to 8 km
1000 to 3000 ft
1500m to 5 km
500 to 1000 ft
800 to 1500m
200 to 500 ft
< 800m
< 200 ft
Symbols :   Thunderstorms  Fog  Heavy snow  Heavy precipitations  Wind > 20 kt
SIGMETs :     Misc.  Thunderstorms  Icing  Turbulence  Mountain Waves  Volcanic Ashes






- Airport Elevation : 76 ft
- IATA code : AKT


LCRA - Akrotiri AB

CURRENT METAR :
  • 250550Z 02004KT CAVOK 22/09 Q1012 NOSIG

EXPIRED METARs :
  • 250450Z 06003KT CAVOK 22/09 Q1011 NOSIG
  • 250350Z 11003KT CAVOK 18/08 Q1011 NOSIG

TAF TAF LCRA
Valid from the 25 at 06:00 until the 26 at 00:00 UTC


250408Z 2506/2524 16006KT CAVOK
BECMG 2506/2509 22012KT
BECMG 2509/2512 26015G25KT
BECMG 2515/2518 30010KT



MET'MAP, your aeronautical weather chart ! - Copyright ORBIFLY December 2007 - Disclaimer

ORBIFLY MET'MAP TEAM :

Programming & Development : Alexandra Zaïnal
Concept & original design : Baudouin d'Aumeries
Assistance for programming : Marc-Olivier Méhu
Technical & hardware support : Manuel Goepfert

Contact : metmap@orbifly.com




SOURCES & CREDITS :

   NOAA